sensor_id;sensor_type;location;lat;lon;timestamp;temperature;humidity
72602;DHT22;60644;55.858;37.390;2023-03-14T00:02:09;-1.65;61.24
72602;DHT22;60644;55.858;37.390;2023-03-14T00:04:36;-1.67;62.29
72602;DHT22;60644;55.858;37.390;2023-03-14T00:07:02;-1.67;62.15
72602;DHT22;60644;55.858;37.390;2023-03-14T00:09:28;-1.67;62.14
72602;DHT22;60644;55.858;37.390;2023-03-14T00:11:56;-1.62;62.24
72602;DHT22;60644;55.858;37.390;2023-03-14T00:14:22;-1.63;62.31
72602;DHT22;60644;55.858;37.390;2023-03-14T00:16:48;-1.61;62.21
72602;DHT22;60644;55.858;37.390;2023-03-14T00:19:14;-1.59;62.05
72602;DHT22;60644;55.858;37.390;2023-03-14T00:21:40;-1.56;62.29
72602;DHT22;60644;55.858;37.390;2023-03-14T00:24:07;-1.59;62.30
72602;DHT22;60644;55.858;37.390;2023-03-14T00:26:33;-1.49;62.96
72602;DHT22;60644;55.858;37.390;2023-03-14T00:28:59;-1.47;62.53
72602;DHT22;60644;55.858;37.390;2023-03-14T00:31:25;-1.46;62.46
72602;DHT22;60644;55.858;37.390;2023-03-14T00:33:52;-1.46;62.61
72602;DHT22;60644;55.858;37.390;2023-03-14T00:36:18;-1.42;62.94
72602;DHT22;60644;55.858;37.390;2023-03-14T00:38:47;-1.42;62.81
72602;DHT22;60644;55.858;37.390;2023-03-14T00:41:16;-1.41;62.98
72602;DHT22;60644;55.858;37.390;2023-03-14T00:43:43;-1.47;63.11
72602;DHT22;60644;55.858;37.390;2023-03-14T00:46:09;-1.36;63.86
72602;DHT22;60644;55.858;37.390;2023-03-14T00:48:35;-1.30;64.13
72602;DHT22;60644;55.858;37.390;2023-03-14T00:51:03;-1.31;64.37
72602;DHT22;60644;55.858;37.390;2023-03-14T00:53:29;-1.32;65.17
72602;DHT22;60644;55.858;37.390;2023-03-14T00:55:55;-1.28;65.69
72602;DHT22;60644;55.858;37.390;2023-03-14T00:58:21;-1.28;65.99
72602;DHT22;60644;55.858;37.390;2023-03-14T01:00:47;-1.26;66.36
72602;DHT22;60644;55.858;37.390;2023-03-14T01:03:14;-1.28;66.49
72602;DHT22;60644;55.858;37.390;2023-03-14T01:05:40;-1.24;66.75
72602;DHT22;60644;55.858;37.390;2023-03-14T01:08:07;-1.30;67.46
72602;DHT22;60644;55.858;37.390;2023-03-14T01:10:37;-1.31;67.96
72602;DHT22;60644;55.858;37.390;2023-03-14T01:13:04;-1.39;68.87
72602;DHT22;60644;55.858;37.390;2023-03-14T01:15:32;-1.35;69.46
72602;DHT22;60644;55.858;37.390;2023-03-14T01:17:58;-1.38;70.10
72602;DHT22;60644;55.858;37.390;2023-03-14T01:20:24;-1.36;71.05
72602;DHT22;60644;55.858;37.390;2023-03-14T01:22:50;-1.34;71.80
72602;DHT22;60644;55.858;37.390;2023-03-14T01:25:16;-1.31;71.18
72602;DHT22;60644;55.858;37.390;2023-03-14T01:27:43;-1.40;73.25
72602;DHT22;60644;55.858;37.390;2023-03-14T01:30:11;-1.41;74.26
72602;DHT22;60644;55.858;37.390;2023-03-14T01:32:38;-1.41;74.81
72602;DHT22;60644;55.858;37.390;2023-03-14T01:35:04;-1.40;75.27
72602;DHT22;60644;55.858;37.390;2023-03-14T01:37:31;-1.33;74.79
72602;DHT22;60644;55.858;37.390;2023-03-14T01:39:57;-1.30;74.88
72602;DHT22;60644;55.858;37.390;2023-03-14T01:42:23;-1.34;76.64
72602;DHT22;60644;55.858;37.390;2023-03-14T01:44:51;-1.35;77.03
72602;DHT22;60644;55.858;37.390;2023-03-14T01:47:18;-1.31;78.13
72602;DHT22;60644;55.858;37.390;2023-03-14T01:49:56;-1.36;77.92
72602;DHT22;60644;55.858;37.390;2023-03-14T01:52:34;-1.34;79.53
72602;DHT22;60644;55.858;37.390;2023-03-14T01:55:05;-1.33;79.58
72602;DHT22;60644;55.858;37.390;2023-03-14T01:57:54;-1.31;78.84
72602;DHT22;60644;55.858;37.390;2023-03-14T02:00:23;-1.24;78.92
72602;DHT22;60644;55.858;37.390;2023-03-14T02:02:57;-1.21;79.02
72602;DHT22;60644;55.858;37.390;2023-03-14T02:05:28;-1.23;78.83
72602;DHT22;60644;55.858;37.390;2023-03-14T02:08:00;-1.23;79.33
72602;DHT22;60644;55.858;37.390;2023-03-14T02:10:45;-1.29;78.85
72602;DHT22;60644;55.858;37.390;2023-03-14T02:13:12;-1.26;79.14
72602;DHT22;60644;55.858;37.390;2023-03-14T02:15:58;-1.24;79.49
72602;DHT22;60644;55.858;37.390;2023-03-14T02:18:50;-1.18;79.00
72602;DHT22;60644;55.858;37.390;2023-03-14T02:21:46;-1.19;80.08
72602;DHT22;60644;55.858;37.390;2023-03-14T02:27:21;-1.33;82.94
72602;DHT22;60644;55.858;37.390;2023-03-14T02:29:52;-1.35;83.87
72602;DHT22;60644;55.858;37.390;2023-03-14T02:32:21;-1.33;84.15
72602;DHT22;60644;55.858;37.390;2023-03-14T02:34:52;-1.27;83.60
72602;DHT22;60644;55.858;37.390;2023-03-14T02:37:21;-1.24;83.23
72602;DHT22;60644;55.858;37.390;2023-03-14T02:39:48;-1.20;83.19
72602;DHT22;60644;55.858;37.390;2023-03-14T02:42:16;-1.17;82.91
72602;DHT22;60644;55.858;37.390;2023-03-14T02:45:01;-1.14;83.52
72602;DHT22;60644;55.858;37.390;2023-03-14T02:48:09;-1.16;83.83
72602;DHT22;60644;55.858;37.390;2023-03-14T02:50:38;-1.10;83.01
72602;DHT22;60644;55.858;37.390;2023-03-14T02:53:04;-1.03;83.67
72602;DHT22;60644;55.858;37.390;2023-03-14T02:55:31;-1.06;83.70
72602;DHT22;60644;55.858;37.390;2023-03-14T02:58:02;-1.05;83.77
72602;DHT22;60644;55.858;37.390;2023-03-14T03:00:28;-1.02;83.94
72602;DHT22;60644;55.858;37.390;2023-03-14T03:02:56;-1.10;84.41
72602;DHT22;60644;55.858;37.390;2023-03-14T03:05:22;-0.97;84.50
72602;DHT22;60644;55.858;37.390;2023-03-14T03:07:47;-0.93;84.64
72602;DHT22;60644;55.858;37.390;2023-03-14T03:10:14;-0.83;83.48
72602;DHT22;60644;55.858;37.390;2023-03-14T03:12:40;-0.80;83.96
72602;DHT22;60644;55.858;37.390;2023-03-14T03:15:06;-0.76;83.53
72602;DHT22;60644;55.858;37.390;2023-03-14T03:17:35;-0.77;83.81
72602;DHT22;60644;55.858;37.390;2023-03-14T03:20:04;-0.75;84.37
72602;DHT22;60644;55.858;37.390;2023-03-14T03:22:31;-0.73;84.37
72602;DHT22;60644;55.858;37.390;2023-03-14T03:24:57;-0.70;84.67
72602;DHT22;60644;55.858;37.390;2023-03-14T03:27:22;-0.65;83.59
72602;DHT22;60644;55.858;37.390;2023-03-14T03:29:48;-0.64;83.20
72602;DHT22;60644;55.858;37.390;2023-03-14T03:32:14;-0.58;83.92
72602;DHT22;60644;55.858;37.390;2023-03-14T03:34:40;-0.57;83.36
72602;DHT22;60644;55.858;37.390;2023-03-14T03:37:06;-0.51;82.84
72602;DHT22;60644;55.858;37.390;2023-03-14T03:39:38;-0.47;82.81
72602;DHT22;60644;55.858;37.390;2023-03-14T03:42:04;-0.46;82.81
72602;DHT22;60644;55.858;37.390;2023-03-14T03:44:30;-0.42;82.58
72602;DHT22;60644;55.858;37.390;2023-03-14T03:46:55;-0.45;83.63
72602;DHT22;60644;55.858;37.390;2023-03-14T03:49:21;-0.42;83.65
72602;DHT22;60644;55.858;37.390;2023-03-14T03:51:47;-0.35;82.99
72602;DHT22;60644;55.858;37.390;2023-03-14T03:54:13;-0.32;83.39
72602;DHT22;60644;55.858;37.390;2023-03-14T03:56:39;-0.28;82.26
72602;DHT22;60644;55.858;37.390;2023-03-14T03:59:05;-0.27;83.18
72602;DHT22;60644;55.858;37.390;2023-03-14T04:01:32;-0.29;83.33
72602;DHT22;60644;55.858;37.390;2023-03-14T04:03:58;-0.24;83.42
72602;DHT22;60644;55.858;37.390;2023-03-14T04:06:25;-0.20;83.16
72602;DHT22;60644;55.858;37.390;2023-03-14T04:08:54;-0.16;83.23
72602;DHT22;60644;55.858;37.390;2023-03-14T04:11:31;-0.13;83.83
72602;DHT22;60644;55.858;37.390;2023-03-14T04:14:15;-0.11;84.24
72602;DHT22;60644;55.858;37.390;2023-03-14T04:16:41;-0.06;84.33
72602;DHT22;60644;55.858;37.390;2023-03-14T04:19:11;-0.05;83.94
72602;DHT22;60644;55.858;37.390;2023-03-14T04:21:37;0.01;84.00
72602;DHT22;60644;55.858;37.390;2023-03-14T04:24:08;0.05;83.97
72602;DHT22;60644;55.858;37.390;2023-03-14T04:26:35;0.02;84.04
72602;DHT22;60644;55.858;37.390;2023-03-14T04:29:01;0.13;84.31
72602;DHT22;60644;55.858;37.390;2023-03-14T04:31:27;0.16;84.14
72602;DHT22;60644;55.858;37.390;2023-03-14T04:33:53;0.16;84.16
72602;DHT22;60644;55.858;37.390;2023-03-14T04:36:27;0.25;84.34
72602;DHT22;60644;55.858;37.390;2023-03-14T04:38:55;0.27;84.13
72602;DHT22;60644;55.858;37.390;2023-03-14T04:41:23;0.25;84.00
72602;DHT22;60644;55.858;37.390;2023-03-14T04:43:49;0.35;84.52
72602;DHT22;60644;55.858;37.390;2023-03-14T04:46:15;0.37;85.31
72602;DHT22;60644;55.858;37.390;2023-03-14T04:48:41;0.39;85.30
72602;DHT22;60644;55.858;37.390;2023-03-14T04:51:08;0.46;84.86
72602;DHT22;60644;55.858;37.390;2023-03-14T04:53:35;0.49;85.38
72602;DHT22;60644;55.858;37.390;2023-03-14T04:56:05;0.51;85.34
72602;DHT22;60644;55.858;37.390;2023-03-14T04:58:37;0.51;85.53
72602;DHT22;60644;55.858;37.390;2023-03-14T05:01:04;0.61;85.38
72602;DHT22;60644;55.858;37.390;2023-03-14T05:03:34;0.64;84.97
72602;DHT22;60644;55.858;37.390;2023-03-14T05:06:20;0.67;84.58
72602;DHT22;60644;55.858;37.390;2023-03-14T05:09:01;0.71;84.43
72602;DHT22;60644;55.858;37.390;2023-03-14T05:11:46;0.76;84.75
72602;DHT22;60644;55.858;37.390;2023-03-14T05:14:30;0.79;84.89
72602;DHT22;60644;55.858;37.390;2023-03-14T05:17:15;0.82;84.88
72602;DHT22;60644;55.858;37.390;2023-03-14T05:19:59;0.90;84.23
72602;DHT22;60644;55.858;37.390;2023-03-14T05:22:34;0.96;84.28
72602;DHT22;60644;55.858;37.390;2023-03-14T05:25:00;0.96;84.48
72602;DHT22;60644;55.858;37.390;2023-03-14T05:27:55;1.01;84.67
72602;DHT22;60644;55.858;37.390;2023-03-14T05:30:38;1.05;84.13
72602;DHT22;60644;55.858;37.390;2023-03-14T05:33:04;1.10;84.22
72602;DHT22;60644;55.858;37.390;2023-03-14T05:35:59;1.14;83.81
72602;DHT22;60644;55.858;37.390;2023-03-14T05:38:25;1.16;83.89
72602;DHT22;60644;55.858;37.390;2023-03-14T05:41:07;1.24;83.79
72602;DHT22;60644;55.858;37.390;2023-03-14T05:44:08;1.32;83.39
72602;DHT22;60644;55.858;37.390;2023-03-14T05:46:44;1.35;83.78
72602;DHT22;60644;55.858;37.390;2023-03-14T05:49:29;1.36;83.61
72602;DHT22;60644;55.858;37.390;2023-03-14T05:52:07;1.42;83.24
72602;DHT22;60644;55.858;37.390;2023-03-14T05:54:36;1.46;83.37
72602;DHT22;60644;55.858;37.390;2023-03-14T05:57:25;1.48;82.54
72602;DHT22;60644;55.858;37.390;2023-03-14T06:00:10;1.50;82.01
72602;DHT22;60644;55.858;37.390;2023-03-14T06:02:40;1.60;81.95
72602;DHT22;60644;55.858;37.390;2023-03-14T06:05:17;1.65;81.74
72602;DHT22;60644;55.858;37.390;2023-03-14T06:07:43;1.66;81.03
72602;DHT22;60644;55.858;37.390;2023-03-14T06:10:10;1.63;81.15
72602;DHT22;60644;55.858;37.390;2023-03-14T06:12:38;1.71;81.16
72602;DHT22;60644;55.858;37.390;2023-03-14T06:15:05;1.69;80.07
72602;DHT22;60644;55.858;37.390;2023-03-14T06:17:31;1.76;80.24
72602;DHT22;60644;55.858;37.390;2023-03-14T06:20:05;1.79;80.04
72602;DHT22;60644;55.858;37.390;2023-03-14T06:22:32;1.90;80.21
72602;DHT22;60644;55.858;37.390;2023-03-14T06:24:58;1.93;79.37
72602;DHT22;60644;55.858;37.390;2023-03-14T06:27:25;1.96;79.40
72602;DHT22;60644;55.858;37.390;2023-03-14T06:29:54;1.94;79.27
72602;DHT22;60644;55.858;37.390;2023-03-14T06:32:20;1.94;78.89
72602;DHT22;60644;55.858;37.390;2023-03-14T06:34:48;1.98;79.28
72602;DHT22;60644;55.858;37.390;2023-03-14T06:37:14;1.97;78.69
72602;DHT22;60644;55.858;37.390;2023-03-14T06:39:41;2.02;78.98
72602;DHT22;60644;55.858;37.390;2023-03-14T06:42:18;2.03;78.60
72602;DHT22;60644;55.858;37.390;2023-03-14T06:44:45;2.07;78.67
72602;DHT22;60644;55.858;37.390;2023-03-14T06:47:11;2.08;78.75
72602;DHT22;60644;55.858;37.390;2023-03-14T06:49:42;2.13;78.91
72602;DHT22;60644;55.858;37.390;2023-03-14T06:52:08;2.25;79.11
72602;DHT22;60644;55.858;37.390;2023-03-14T06:54:34;2.27;79.14
72602;DHT22;60644;55.858;37.390;2023-03-14T06:57:01;2.30;79.02
72602;DHT22;60644;55.858;37.390;2023-03-14T06:59:28;2.40;79.37
72602;DHT22;60644;55.858;37.390;2023-03-14T07:01:54;2.42;79.10
72602;DHT22;60644;55.858;37.390;2023-03-14T07:04:20;2.41;79.01
72602;DHT22;60644;55.858;37.390;2023-03-14T07:06:47;2.46;78.98
72602;DHT22;60644;55.858;37.390;2023-03-14T07:09:14;2.43;78.49
72602;DHT22;60644;55.858;37.390;2023-03-14T07:11:48;2.53;78.56
72602;DHT22;60644;55.858;37.390;2023-03-14T07:14:15;2.59;78.31
72602;DHT22;60644;55.858;37.390;2023-03-14T07:16:41;2.54;77.69
72602;DHT22;60644;55.858;37.390;2023-03-14T07:19:08;2.57;77.34
72602;DHT22;60644;55.858;37.390;2023-03-14T07:21:37;2.62;77.27
72602;DHT22;60644;55.858;37.390;2023-03-14T07:24:07;2.60;76.85
72602;DHT22;60644;55.858;37.390;2023-03-14T07:26:33;2.65;75.92
72602;DHT22;60644;55.858;37.390;2023-03-14T07:28:59;2.74;76.47
72602;DHT22;60644;55.858;37.390;2023-03-14T07:31:26;2.78;75.77
72602;DHT22;60644;55.858;37.390;2023-03-14T07:33:52;2.82;76.01
72602;DHT22;60644;55.858;37.390;2023-03-14T07:36:20;2.86;76.12
72602;DHT22;60644;55.858;37.390;2023-03-14T07:38:46;2.87;76.34
72602;DHT22;60644;55.858;37.390;2023-03-14T07:41:21;2.89;76.79
72602;DHT22;60644;55.858;37.390;2023-03-14T07:44:08;2.87;76.92
72602;DHT22;60644;55.858;37.390;2023-03-14T07:46:34;2.79;76.41
72602;DHT22;60644;55.858;37.390;2023-03-14T07:49:00;2.83;76.28
72602;DHT22;60644;55.858;37.390;2023-03-14T07:51:26;2.88;76.59
72602;DHT22;60644;55.858;37.390;2023-03-14T07:53:52;2.86;75.92
72602;DHT22;60644;55.858;37.390;2023-03-14T07:56:18;2.86;75.66
72602;DHT22;60644;55.858;37.390;2023-03-14T07:58:43;2.95;76.95
72602;DHT22;60644;55.858;37.390;2023-03-14T08:01:10;2.99;76.98
72602;DHT22;60644;55.858;37.390;2023-03-14T08:03:35;2.97;75.97
72602;DHT22;60644;55.858;37.390;2023-03-14T08:06:01;3.00;76.00
72602;DHT22;60644;55.858;37.390;2023-03-14T08:08:27;3.03;75.48
72602;DHT22;60644;55.858;37.390;2023-03-14T08:10:53;3.09;74.97
72602;DHT22;60644;55.858;37.390;2023-03-14T08:13:19;3.14;74.35
72602;DHT22;60644;55.858;37.390;2023-03-14T08:15:48;3.25;74.14
72602;DHT22;60644;55.858;37.390;2023-03-14T08:18:14;3.13;72.68
72602;DHT22;60644;55.858;37.390;2023-03-14T08:20:40;3.27;73.15
72602;DHT22;60644;55.858;37.390;2023-03-14T08:23:06;3.35;73.35
72602;DHT22;60644;55.858;37.390;2023-03-14T08:25:32;3.39;73.85
72602;DHT22;60644;55.858;37.390;2023-03-14T08:27:58;3.48;74.15
72602;DHT22;60644;55.858;37.390;2023-03-14T08:30:23;3.38;72.67
72602;DHT22;60644;55.858;37.390;2023-03-14T08:32:49;3.44;73.64
72602;DHT22;60644;55.858;37.390;2023-03-14T08:35:15;3.60;74.73
72602;DHT22;60644;55.858;37.390;2023-03-14T08:37:41;3.61;74.26
72602;DHT22;60644;55.858;37.390;2023-03-14T08:40:08;3.60;73.80
72602;DHT22;60644;55.858;37.390;2023-03-14T08:42:39;3.63;74.83
72602;DHT22;60644;55.858;37.390;2023-03-14T08:45:06;3.67;74.53
72602;DHT22;60644;55.858;37.390;2023-03-14T08:47:33;3.62;73.27
72602;DHT22;60644;55.858;37.390;2023-03-14T08:50:18;3.71;73.61
72602;DHT22;60644;55.858;37.390;2023-03-14T08:52:43;3.74;73.38
72602;DHT22;60644;55.858;37.390;2023-03-14T08:55:28;3.79;73.99
72602;DHT22;60644;55.858;37.390;2023-03-14T08:57:54;3.79;73.41
72602;DHT22;60644;55.858;37.390;2023-03-14T09:00:20;3.83;72.16
72602;DHT22;60644;55.858;37.390;2023-03-14T09:02:46;3.90;73.10
72602;DHT22;60644;55.858;37.390;2023-03-14T09:05:13;3.90;71.77
72602;DHT22;60644;55.858;37.390;2023-03-14T09:07:39;4.01;72.19
72602;DHT22;60644;55.858;37.390;2023-03-14T09:10:07;4.06;71.66
72602;DHT22;60644;55.858;37.390;2023-03-14T09:12:34;4.13;71.04
72602;DHT22;60644;55.858;37.390;2023-03-14T09:14:59;4.04;68.19
72602;DHT22;60644;55.858;37.390;2023-03-14T09:17:26;4.18;70.25
72602;DHT22;60644;55.858;37.390;2023-03-14T09:19:52;4.26;70.24
72602;DHT22;60644;55.858;37.390;2023-03-14T09:22:18;4.33;70.09
72602;DHT22;60644;55.858;37.390;2023-03-14T09:24:44;0.00;0.00
72602;DHT22;60644;55.858;37.390;2023-03-14T09:27:09;0.00;0.00
72602;DHT22;60644;55.858;37.390;2023-03-14T09:29:35;0.00;0.00
72602;DHT22;60644;55.858;37.390;2023-03-14T09:32:01;0.00;0.00
72602;DHT22;60644;55.858;37.390;2023-03-14T09:34:27;0.00;0.00
72602;DHT22;60644;55.858;37.390;2023-03-14T09:36:53;0.00;0.00
72602;DHT22;60644;55.858;37.390;2023-03-14T09:39:19;0.00;0.00
72602;DHT22;60644;55.858;37.390;2023-03-14T09:41:50;0.00;0.00
72602;DHT22;60644;55.858;37.390;2023-03-14T09:44:27;0.00;0.00
72602;DHT22;60644;55.858;37.390;2023-03-14T09:46:57;0.00;0.00
72602;DHT22;60644;55.858;37.390;2023-03-14T09:49:28;0.00;0.00
72602;DHT22;60644;55.858;37.390;2023-03-14T09:51:56;0.00;0.00
72602;DHT22;60644;55.858;37.390;2023-03-14T09:54:39;0.00;0.00
72602;DHT22;60644;55.858;37.390;2023-03-14T09:57:12;0.00;0.00
72602;DHT22;60644;55.858;37.390;2023-03-14T09:59:39;0.00;0.00
72602;DHT22;60644;55.858;37.390;2023-03-14T10:02:22;0.00;0.00
72602;DHT22;60644;55.858;37.390;2023-03-14T10:04:50;0.00;0.00
72602;DHT22;60644;55.858;37.390;2023-03-14T10:07:28;0.00;0.00
72602;DHT22;60644;55.858;37.390;2023-03-14T10:09:55;0.00;0.00
72602;DHT22;60644;55.858;37.390;2023-03-14T10:12:35;0.00;0.00
72602;DHT22;60644;55.858;37.390;2023-03-14T10:15:09;0.00;0.00
72602;DHT22;60644;55.858;37.390;2023-03-14T10:17:49;0.00;0.00
72602;DHT22;60644;55.858;37.390;2023-03-14T10:20:37;0.00;0.00
72602;DHT22;60644;55.858;37.390;2023-03-14T10:25:43;0.00;0.00
72602;DHT22;60644;55.858;37.390;2023-03-14T10:30:49;0.00;0.00
72602;DHT22;60644;55.858;37.390;2023-03-14T10:35:44;0.00;0.00
72602;DHT22;60644;55.858;37.390;2023-03-14T10:38:16;0.00;0.00
72602;DHT22;60644;55.858;37.390;2023-03-14T10:40:48;0.00;0.00
72602;DHT22;60644;55.858;37.390;2023-03-14T10:43:21;0.00;0.00
72602;DHT22;60644;55.858;37.390;2023-03-14T10:46:23;0.00;0.00
72602;DHT22;60644;55.858;37.390;2023-03-14T10:49:06;0.00;0.00
72602;DHT22;60644;55.858;37.390;2023-03-14T10:51:32;0.00;0.00
72602;DHT22;60644;55.858;37.390;2023-03-14T10:54:02;0.00;0.00
72602;DHT22;60644;55.858;37.390;2023-03-14T10:56:34;0.00;0.00
72602;DHT22;60644;55.858;37.390;2023-03-14T10:59:02;0.00;0.00
72602;DHT22;60644;55.858;37.390;2023-03-14T11:06:56;0.00;0.00
72602;DHT22;60644;55.858;37.390;2023-03-14T11:15:23;0.00;0.00
72602;DHT22;60644;55.858;37.390;2023-03-14T11:21:29;0.00;0.00
72602;DHT22;60644;55.858;37.390;2023-03-14T11:23:31;0.00;0.00
72602;DHT22;60644;55.858;37.390;2023-03-14T11:28:57;0.00;0.00
72602;DHT22;60644;55.858;37.390;2023-03-14T11:31:32;0.00;0.00
72602;DHT22;60644;55.858;37.390;2023-03-14T11:34:10;0.00;0.00
72602;DHT22;60644;55.858;37.390;2023-03-14T11:36:52;0.00;0.00
72602;DHT22;60644;55.858;37.390;2023-03-14T11:39:20;0.00;0.00
72602;DHT22;60644;55.858;37.390;2023-03-14T11:41:49;0.00;0.00
72602;DHT22;60644;55.858;37.390;2023-03-14T11:44:25;0.00;0.00
72602;DHT22;60644;55.858;37.390;2023-03-14T11:49:38;0.00;0.00
72602;DHT22;60644;55.858;37.390;2023-03-14T11:55:10;0.00;0.00
72602;DHT22;60644;55.858;37.390;2023-03-14T11:57:39;0.00;0.00
72602;DHT22;60644;55.858;37.390;2023-03-14T12:02:57;0.00;0.00
72602;DHT22;60644;55.858;37.390;2023-03-14T12:08:28;0.00;0.00
72602;DHT22;60644;55.858;37.390;2023-03-14T12:14:00;0.00;0.00
72602;DHT22;60644;55.858;37.390;2023-03-14T12:16:31;0.00;0.00
72602;DHT22;60644;55.858;37.390;2023-03-14T12:19:13;0.00;0.00
72602;DHT22;60644;55.858;37.390;2023-03-14T12:24:31;0.00;0.00
72602;DHT22;60644;55.858;37.390;2023-03-14T12:27:02;0.00;0.00
72602;DHT22;60644;55.858;37.390;2023-03-14T12:29:29;0.00;0.00
72602;DHT22;60644;55.858;37.390;2023-03-14T12:34:34;0.00;0.00
72602;DHT22;60644;55.858;37.390;2023-03-14T12:37:24;0.00;0.00
72602;DHT22;60644;55.858;37.390;2023-03-14T12:42:59;0.00;0.00
72602;DHT22;60644;55.858;37.390;2023-03-14T12:45:31;0.00;0.00
72602;DHT22;60644;55.858;37.390;2023-03-14T12:48:20;0.00;0.00
72602;DHT22;60644;55.858;37.390;2023-03-14T12:51:02;0.00;0.00
72602;DHT22;60644;55.858;37.390;2023-03-14T12:56:19;0.00;0.00
72602;DHT22;60644;55.858;37.390;2023-03-14T13:01:28;0.00;0.00
72602;DHT22;60644;55.858;37.390;2023-03-14T13:09:51;0.00;0.00
72602;DHT22;60644;55.858;37.390;2023-03-14T13:12:18;0.00;0.00
72602;DHT22;60644;55.858;37.390;2023-03-14T13:14:49;0.00;0.00
72602;DHT22;60644;55.858;37.390;2023-03-14T13:17:27;0.00;0.00
72602;DHT22;60644;55.858;37.390;2023-03-14T13:19:56;0.00;0.00
72602;DHT22;60644;55.858;37.390;2023-03-14T13:22:28;0.00;0.00
72602;DHT22;60644;55.858;37.390;2023-03-14T13:25:05;0.00;0.00
72602;DHT22;60644;55.858;37.390;2023-03-14T13:27:34;0.00;0.00
72602;DHT22;60644;55.858;37.390;2023-03-14T13:30:26;0.00;0.00
72602;DHT22;60644;55.858;37.390;2023-03-14T13:32:53;0.00;0.00
72602;DHT22;60644;55.858;37.390;2023-03-14T13:35:25;0.00;0.00
72602;DHT22;60644;55.858;37.390;2023-03-14T13:38:00;0.00;0.00
72602;DHT22;60644;55.858;37.390;2023-03-14T13:40:34;0.00;0.00
72602;DHT22;60644;55.858;37.390;2023-03-14T13:43:14;0.00;0.00
72602;DHT22;60644;55.858;37.390;2023-03-14T13:45:45;0.00;0.00
72602;DHT22;60644;55.858;37.390;2023-03-14T13:48:13;0.00;0.00
72602;DHT22;60644;55.858;37.390;2023-03-14T13:50:54;0.00;0.00
72602;DHT22;60644;55.858;37.390;2023-03-14T13:53:22;0.00;0.00
72602;DHT22;60644;55.858;37.390;2023-03-14T13:55:49;0.00;0.00
72602;DHT22;60644;55.858;37.390;2023-03-14T13:58:29;0.00;0.00
72602;DHT22;60644;55.858;37.390;2023-03-14T14:00:57;0.00;0.00
72602;DHT22;60644;55.858;37.390;2023-03-14T14:03:24;0.00;0.00
72602;DHT22;60644;55.858;37.390;2023-03-14T14:05:50;0.00;0.00
72602;DHT22;60644;55.858;37.390;2023-03-14T14:08:15;0.00;0.00
72602;DHT22;60644;55.858;37.390;2023-03-14T14:10:41;0.00;0.00
72602;DHT22;60644;55.858;37.390;2023-03-14T14:13:14;0.00;0.00
72602;DHT22;60644;55.858;37.390;2023-03-14T14:15:45;0.00;0.00
72602;DHT22;60644;55.858;37.390;2023-03-14T14:18:15;0.00;0.00
72602;DHT22;60644;55.858;37.390;2023-03-14T14:20:44;0.00;0.00
72602;DHT22;60644;55.858;37.390;2023-03-14T14:23:17;0.00;0.00
72602;DHT22;60644;55.858;37.390;2023-03-14T14:25:45;0.00;0.00
72602;DHT22;60644;55.858;37.390;2023-03-14T14:28:20;0.00;0.00
72602;DHT22;60644;55.858;37.390;2023-03-14T14:30:46;0.00;0.00
72602;DHT22;60644;55.858;37.390;2023-03-14T14:33:24;0.00;0.00
72602;DHT22;60644;55.858;37.390;2023-03-14T14:35:58;0.00;0.00
72602;DHT22;60644;55.858;37.390;2023-03-14T14:38:26;0.00;0.00
72602;DHT22;60644;55.858;37.390;2023-03-14T14:41:00;0.00;0.00
72602;DHT22;60644;55.858;37.390;2023-03-14T14:43:30;0.00;0.00
72602;DHT22;60644;55.858;37.390;2023-03-14T14:45:59;0.00;0.00
72602;DHT22;60644;55.858;37.390;2023-03-14T14:48:27;0.00;0.00
72602;DHT22;60644;55.858;37.390;2023-03-14T14:50:58;0.00;0.00
72602;DHT22;60644;55.858;37.390;2023-03-14T14:53:35;0.00;0.00
72602;DHT22;60644;55.858;37.390;2023-03-14T14:56:19;0.00;0.00
72602;DHT22;60644;55.858;37.390;2023-03-14T14:58:49;0.00;0.00
72602;DHT22;60644;55.858;37.390;2023-03-14T15:01:38;0.00;0.00
72602;DHT22;60644;55.858;37.390;2023-03-14T15:04:12;0.00;0.00
72602;DHT22;60644;55.858;37.390;2023-03-14T15:06:39;0.00;0.00
72602;DHT22;60644;55.858;37.390;2023-03-14T15:09:09;0.00;0.00
72602;DHT22;60644;55.858;37.390;2023-03-14T15:11:36;0.00;0.00
72602;DHT22;60644;55.858;37.390;2023-03-14T15:14:02;0.00;0.00
72602;DHT22;60644;55.858;37.390;2023-03-14T15:16:31;0.00;0.00
72602;DHT22;60644;55.858;37.390;2023-03-14T15:18:59;0.00;0.00
72602;DHT22;60644;55.858;37.390;2023-03-14T15:21:26;0.00;0.00
72602;DHT22;60644;55.858;37.390;2023-03-14T15:23:53;0.00;0.00
72602;DHT22;60644;55.858;37.390;2023-03-14T15:26:21;0.00;0.00
72602;DHT22;60644;55.858;37.390;2023-03-14T15:28:48;0.00;0.00
72602;DHT22;60644;55.858;37.390;2023-03-14T15:31:16;0.00;0.00
72602;DHT22;60644;55.858;37.390;2023-03-14T15:33:44;0.00;0.00
72602;DHT22;60644;55.858;37.390;2023-03-14T15:36:24;0.00;0.00
72602;DHT22;60644;55.858;37.390;2023-03-14T15:38:52;0.00;0.00
72602;DHT22;60644;55.858;37.390;2023-03-14T15:41:18;0.00;0.00
72602;DHT22;60644;55.858;37.390;2023-03-14T15:43:45;0.00;0.00
72602;DHT22;60644;55.858;37.390;2023-03-14T15:46:11;0.00;0.00
72602;DHT22;60644;55.858;37.390;2023-03-14T15:48:38;0.00;0.00
72602;DHT22;60644;55.858;37.390;2023-03-14T15:51:04;0.00;0.00
72602;DHT22;60644;55.858;37.390;2023-03-14T15:53:30;0.00;0.00
72602;DHT22;60644;55.858;37.390;2023-03-14T15:55:56;0.00;0.00
72602;DHT22;60644;55.858;37.390;2023-03-14T15:58:21;0.00;0.00
72602;DHT22;60644;55.858;37.390;2023-03-14T16:00:48;0.00;0.00
72602;DHT22;60644;55.858;37.390;2023-03-14T16:03:14;0.00;0.00
72602;DHT22;60644;55.858;37.390;2023-03-14T16:05:40;0.00;0.00
72602;DHT22;60644;55.858;37.390;2023-03-14T16:08:06;0.00;0.00
72602;DHT22;60644;55.858;37.390;2023-03-14T16:10:32;0.00;0.00
72602;DHT22;60644;55.858;37.390;2023-03-14T16:12:58;0.00;0.00
72602;DHT22;60644;55.858;37.390;2023-03-14T16:15:24;0.00;0.00
72602;DHT22;60644;55.858;37.390;2023-03-14T16:17:53;0.00;0.00
72602;DHT22;60644;55.858;37.390;2023-03-14T16:20:19;0.00;0.00
72602;DHT22;60644;55.858;37.390;2023-03-14T16:22:46;0.00;0.00
72602;DHT22;60644;55.858;37.390;2023-03-14T16:25:12;0.00;0.00
72602;DHT22;60644;55.858;37.390;2023-03-14T16:27:38;0.00;0.00
72602;DHT22;60644;55.858;37.390;2023-03-14T16:30:05;0.00;0.00
72602;DHT22;60644;55.858;37.390;2023-03-14T16:32:31;0.00;0.00
72602;DHT22;60644;55.858;37.390;2023-03-14T16:34:57;0.00;0.00
72602;DHT22;60644;55.858;37.390;2023-03-14T16:37:23;0.00;0.00
72602;DHT22;60644;55.858;37.390;2023-03-14T16:39:49;0.00;0.00
72602;DHT22;60644;55.858;37.390;2023-03-14T16:42:15;0.00;0.00
72602;DHT22;60644;55.858;37.390;2023-03-14T16:44:41;0.00;0.00
72602;DHT22;60644;55.858;37.390;2023-03-14T16:47:08;0.00;0.00
72602;DHT22;60644;55.858;37.390;2023-03-14T16:49:34;0.00;0.00
72602;DHT22;60644;55.858;37.390;2023-03-14T16:51:59;0.00;0.00
72602;DHT22;60644;55.858;37.390;2023-03-14T16:54:26;0.00;0.00